createdAt,value
2023-05-14T00:00:35.912Z,33.52
2023-05-14T00:01:35.997Z,33.53
2023-05-14T00:02:36.146Z,33.52
2023-05-14T00:03:36.305Z,33.54
2023-05-14T00:04:36.176Z,33.54
2023-05-14T00:05:36.210Z,33.53
2023-05-14T00:06:36.243Z,33.53
2023-05-14T00:07:36.307Z,33.52
2023-05-14T00:08:36.355Z,33.49
2023-05-14T00:09:36.440Z,33.51
2023-05-14T00:10:36.458Z,33.51
2023-05-14T00:11:36.543Z,33.50
2023-05-14T00:12:36.556Z,33.53
2023-05-14T00:13:36.630Z,33.52
2023-05-14T00:14:36.638Z,33.51
2023-05-14T00:15:36.802Z,33.49
2023-05-14T00:16:36.842Z,33.49
2023-05-14T00:17:36.833Z,33.48
2023-05-14T00:18:36.920Z,33.48
2023-05-14T00:19:36.927Z,33.50
2023-05-14T00:20:36.982Z,33.48
2023-05-14T00:21:37.044Z,33.47
2023-05-14T00:22:37.091Z,33.49
2023-05-14T00:23:37.190Z,33.48
2023-05-14T00:24:37.216Z,33.50
2023-05-14T00:25:37.288Z,33.49
2023-05-14T00:26:37.356Z,33.49
2023-05-14T00:27:37.408Z,33.47
2023-05-14T00:28:37.453Z,33.49
2023-05-14T00:29:37.487Z,33.48
2023-05-14T00:30:37.547Z,33.46
2023-05-14T00:31:37.698Z,33.45
2023-05-14T00:32:37.689Z,33.41
2023-05-14T00:33:37.692Z,33.44
2023-05-14T00:34:37.755Z,33.44
2023-05-14T00:35:37.812Z,33.45
2023-05-14T00:36:37.907Z,33.43
2023-05-14T00:37:37.923Z,33.41
2023-05-14T00:38:37.997Z,33.43
2023-05-14T00:39:38.035Z,33.43
2023-05-14T00:40:38.101Z,33.42
2023-05-14T00:41:38.164Z,33.41
2023-05-14T00:42:38.207Z,33.40
2023-05-14T00:43:38.270Z,33.40
2023-05-14T00:44:38.304Z,33.40
2023-05-14T00:45:38.347Z,33.40
2023-05-14T00:46:38.435Z,33.40
2023-05-14T00:47:38.510Z,33.41
2023-05-14T00:48:38.507Z,33.39
2023-05-14T00:49:38.568Z,33.38
2023-05-14T00:50:38.632Z,33.40
2023-05-14T00:51:38.717Z,33.39
2023-05-14T00:52:38.795Z,33.39
2023-05-14T00:53:38.808Z,33.38
2023-05-14T00:54:38.884Z,33.38
2023-05-14T00:55:38.883Z,33.38
2023-05-14T00:56:38.927Z,33.38
2023-05-14T00:57:38.966Z,33.38
2023-05-14T00:58:38.970Z,33.39
2023-05-14T00:59:39.063Z,33.39
2023-05-14T01:00:39.139Z,33.37
2023-05-14T01:01:39.183Z,33.36
2023-05-14T01:02:39.295Z,33.35
2023-05-14T01:03:39.500Z,33.38
2023-05-14T01:04:39.325Z,33.35
2023-05-14T01:05:39.373Z,33.34
2023-05-14T01:06:39.470Z,33.33
2023-05-14T01:07:39.532Z,33.33
2023-05-14T01:08:39.614Z,33.32
2023-05-14T01:09:39.642Z,33.30
2023-05-14T01:10:39.719Z,33.31
2023-05-14T01:11:39.744Z,33.32
2023-05-14T01:12:39.785Z,33.32
2023-05-14T01:13:39.862Z,33.30
2023-05-14T01:14:39.906Z,33.30
2023-05-14T01:15:39.985Z,33.29
2023-05-14T01:16:40.107Z,33.29
2023-05-14T01:17:40.163Z,33.28
2023-05-14T01:18:40.229Z,33.27
2023-05-14T01:19:40.220Z,33.27
2023-05-14T01:20:40.249Z,33.26
2023-05-14T01:21:40.342Z,33.26
2023-05-14T01:22:40.422Z,33.29
2023-05-14T01:23:40.444Z,33.27
2023-05-14T01:24:40.522Z,33.28
2023-05-14T01:25:40.562Z,33.28
2023-05-14T01:26:40.599Z,33.28
2023-05-14T01:27:40.656Z,33.28
2023-05-14T01:28:40.726Z,33.28
2023-05-14T01:29:40.775Z,33.27
2023-05-14T01:30:40.855Z,33.27
2023-05-14T01:31:41.008Z,33.30
2023-05-14T01:32:41.013Z,33.28
2023-05-14T01:33:41.037Z,33.28
2023-05-14T01:34:41.036Z,33.29
2023-05-14T01:35:41.085Z,33.28
2023-05-14T01:36:41.145Z,33.27
2023-05-14T01:37:41.201Z,33.26
2023-05-14T01:38:41.289Z,33.26
2023-05-14T01:39:41.334Z,33.27
2023-05-14T01:40:41.356Z,33.26
2023-05-14T01:41:41.443Z,33.26
2023-05-14T01:42:41.502Z,33.26
2023-05-14T01:43:41.583Z,33.25
2023-05-14T01:44:41.616Z,33.23
2023-05-14T01:45:41.681Z,33.25
2023-05-14T01:46:41.760Z,33.24
2023-05-14T01:47:41.809Z,33.21
2023-05-14T01:48:41.853Z,33.21
2023-05-14T01:49:41.914Z,33.20
2023-05-14T01:50:41.925Z,33.21
2023-05-14T01:51:41.998Z,33.21
2023-05-14T01:52:42.039Z,33.18
2023-05-14T01:53:42.129Z,33.20
2023-05-14T01:54:42.171Z,33.18
2023-05-14T01:55:42.222Z,33.20
2023-05-14T01:56:42.283Z,33.18
2023-05-14T01:57:42.351Z,33.20
2023-05-14T01:58:42.384Z,33.17
2023-05-14T01:59:42.473Z,33.18
2023-05-14T02:00:42.524Z,33.18
2023-05-14T02:01:42.634Z,33.19
2023-05-14T02:02:42.648Z,33.18
2023-05-14T02:03:42.704Z,33.19
2023-05-14T02:04:42.735Z,33.18
2023-05-14T02:05:42.765Z,33.21
2023-05-14T02:06:42.830Z,33.18
2023-05-14T02:07:42.907Z,33.17
2023-05-14T02:08:42.967Z,33.16
2023-05-14T02:09:43.025Z,33.15
2023-05-14T02:10:43.058Z,33.16
2023-05-14T02:11:43.103Z,33.16
2023-05-14T02:12:43.191Z,33.15
2023-05-14T02:13:43.283Z,33.17
2023-05-14T02:14:43.330Z,33.15
2023-05-14T02:15:43.393Z,33.15
2023-05-14T02:16:43.435Z,33.14
2023-05-14T02:17:43.565Z,33.10
2023-05-14T02:18:43.628Z,33.11
2023-05-14T02:19:43.628Z,33.12
2023-05-14T02:20:43.703Z,33.11
2023-05-14T02:21:43.770Z,33.08
2023-05-14T02:22:43.832Z,33.10
2023-05-14T02:23:43.898Z,33.11
2023-05-14T02:24:43.986Z,33.08
2023-05-14T02:25:43.988Z,33.09
2023-05-14T02:26:44.043Z,33.08
2023-05-14T02:27:44.136Z,33.08
2023-05-14T02:28:44.228Z,33.06
2023-05-14T02:29:44.233Z,33.06
2023-05-14T02:30:44.296Z,33.08
2023-05-14T02:31:44.422Z,33.05
2023-05-14T02:32:44.473Z,33.05
2023-05-14T02:33:44.548Z,33.03
2023-05-14T02:34:44.564Z,33.04
2023-05-14T02:35:44.602Z,33.03
2023-05-14T02:36:44.687Z,33.01
2023-05-14T02:37:44.753Z,33.00
2023-05-14T02:38:44.821Z,32.98
2023-05-14T02:39:44.875Z,32.98
2023-05-14T02:40:44.964Z,32.98
2023-05-14T02:41:44.987Z,32.98
2023-05-14T02:42:45.125Z,32.95
2023-05-14T02:43:45.118Z,32.97
2023-05-14T02:44:45.146Z,32.99
2023-05-14T02:45:45.207Z,32.97
2023-05-14T02:46:45.361Z,32.96
2023-05-14T02:47:45.364Z,32.95
2023-05-14T02:48:45.396Z,32.96
2023-05-14T02:49:45.456Z,32.97
2023-05-14T02:50:45.504Z,32.96
2023-05-14T02:51:45.575Z,32.97
2023-05-14T02:52:45.653Z,32.96
2023-05-14T02:53:45.690Z,32.97
2023-05-14T02:54:45.741Z,32.93
2023-05-14T02:55:45.815Z,32.94
2023-05-14T02:56:45.896Z,32.95
2023-05-14T02:57:45.957Z,32.95
2023-05-14T02:58:46.009Z,32.93
2023-05-14T02:59:46.083Z,32.92
2023-05-14T03:00:46.128Z,32.90
2023-05-14T03:01:46.186Z,32.91
2023-05-14T03:02:46.378Z,32.90
2023-05-14T03:03:46.295Z,32.88
2023-05-14T03:04:46.391Z,32.89
2023-05-14T03:05:46.443Z,32.90
2023-05-14T03:06:46.479Z,32.89
2023-05-14T03:07:46.561Z,32.89
2023-05-14T03:08:46.661Z,32.92
2023-05-14T03:09:46.663Z,32.91
2023-05-14T03:10:46.724Z,32.89
2023-05-14T03:11:46.765Z,32.88
2023-05-14T03:12:46.856Z,32.90
2023-05-14T03:13:46.897Z,32.88
2023-05-14T03:14:46.965Z,32.90
2023-05-14T03:15:46.988Z,32.88
2023-05-14T03:16:47.073Z,32.89
2023-05-14T03:17:47.138Z,32.86
2023-05-14T03:18:47.199Z,32.88
2023-05-14T03:19:47.219Z,32.90
2023-05-14T03:20:47.276Z,32.87
2023-05-14T03:21:47.343Z,32.90
2023-05-14T03:22:47.388Z,32.86
2023-05-14T03:23:47.440Z,32.89
2023-05-14T03:24:47.489Z,32.89
2023-05-14T03:25:47.502Z,32.89
2023-05-14T03:26:47.578Z,32.88
2023-05-14T03:27:47.677Z,32.90
2023-05-14T03:28:47.709Z,32.89
2023-05-14T03:29:47.755Z,32.88
2023-05-14T03:30:47.837Z,32.85
2023-05-14T03:31:47.873Z,32.85
2023-05-14T03:32:47.968Z,32.84
2023-05-14T03:33:48.004Z,32.84
2023-05-14T03:34:48.084Z,32.87
2023-05-14T03:35:48.142Z,32.86
2023-05-14T03:36:48.163Z,32.88
2023-05-14T03:37:48.181Z,32.86
2023-05-14T03:38:48.224Z,32.87
2023-05-14T03:39:48.240Z,32.87
2023-05-14T03:40:48.292Z,32.87
2023-05-14T03:41:48.372Z,32.89
2023-05-14T03:42:48.404Z,32.89
2023-05-14T03:43:48.471Z,32.89
2023-05-14T03:44:48.509Z,32.89
2023-05-14T03:45:48.587Z,32.87
2023-05-14T03:46:48.647Z,32.89
2023-05-14T03:47:48.718Z,32.91
2023-05-14T03:48:48.768Z,32.89
2023-05-14T03:49:48.783Z,32.87
2023-05-14T03:50:48.816Z,32.87
2023-05-14T03:51:48.903Z,32.88
2023-05-14T03:52:48.956Z,32.87
2023-05-14T03:53:48.975Z,32.89
2023-05-14T03:54:49.031Z,32.85
2023-05-14T03:55:49.108Z,32.88
2023-05-14T03:56:49.162Z,32.86
2023-05-14T03:57:49.224Z,32.86
2023-05-14T03:58:49.295Z,32.89
2023-05-14T03:59:49.352Z,32.88
2023-05-14T04:00:49.407Z,32.88
2023-05-14T04:01:49.478Z,32.86
2023-05-14T04:02:49.595Z,32.87
2023-05-14T04:03:49.776Z,32.85
2023-05-14T04:04:49.760Z,32.86
2023-05-14T04:05:49.697Z,32.85
2023-05-14T04:06:49.745Z,32.86
2023-05-14T04:07:49.838Z,32.85
2023-05-14T04:08:49.881Z,32.86
2023-05-14T04:09:49.949Z,32.83
2023-05-14T04:10:49.991Z,32.83
2023-05-14T04:11:50.021Z,32.82
2023-05-14T04:12:50.079Z,32.82
2023-05-14T04:13:50.112Z,32.82
2023-05-14T04:14:50.146Z,32.83
2023-05-14T04:15:50.208Z,32.81
2023-05-14T04:16:50.296Z,32.84
2023-05-14T04:17:50.306Z,32.81
2023-05-14T04:18:50.388Z,32.81
2023-05-14T04:19:50.410Z,32.84
2023-05-14T04:20:50.437Z,32.82
2023-05-14T04:21:50.507Z,32.81
2023-05-14T04:22:50.543Z,32.81
2023-05-14T04:23:50.622Z,32.83
2023-05-14T04:24:50.629Z,32.83
2023-05-14T04:25:50.682Z,32.82
2023-05-14T04:26:50.738Z,32.83
2023-05-14T04:27:50.796Z,32.81
2023-05-14T04:28:50.824Z,32.82
2023-05-14T04:29:50.908Z,32.81
2023-05-14T04:30:50.907Z,32.82
2023-05-14T04:31:51.055Z,32.82
2023-05-14T04:32:51.054Z,32.81
2023-05-14T04:33:51.090Z,32.78
2023-05-14T04:34:51.098Z,32.79
2023-05-14T04:35:51.156Z,32.80
2023-05-14T04:36:51.223Z,32.77
2023-05-14T04:37:51.241Z,32.76
2023-05-14T04:38:51.263Z,32.73
2023-05-14T04:39:51.346Z,32.74
2023-05-14T04:40:51.400Z,32.73
2023-05-14T04:41:51.476Z,32.73
2023-05-14T04:42:51.550Z,32.69
2023-05-14T04:43:51.559Z,32.68
2023-05-14T04:44:51.583Z,32.64
2023-05-14T04:45:51.680Z,32.63
2023-05-14T04:46:51.739Z,32.62
2023-05-14T04:47:51.742Z,32.61
2023-05-14T04:48:51.780Z,32.63
2023-05-14T04:49:51.815Z,32.61
2023-05-14T04:50:51.872Z,32.61
2023-05-14T04:51:52.011Z,32.62
2023-05-14T04:52:51.954Z,32.61
2023-05-14T04:53:51.981Z,32.60
2023-05-14T04:54:52.092Z,32.60
2023-05-14T04:55:52.104Z,32.58
2023-05-14T04:56:52.159Z,32.62
2023-05-14T04:57:52.195Z,32.60
2023-05-14T04:58:52.219Z,32.62
2023-05-14T04:59:52.281Z,32.61
2023-05-14T05:00:52.361Z,32.60
2023-05-14T05:01:52.382Z,32.62
2023-05-14T05:02:52.448Z,32.62
2023-05-14T05:03:52.670Z,32.61
2023-05-14T05:04:52.536Z,32.62
2023-05-14T05:05:52.570Z,32.63
2023-05-14T05:06:52.620Z,32.61
2023-05-14T05:07:52.674Z,32.62
2023-05-14T05:08:52.687Z,32.60
2023-05-14T05:09:52.713Z,32.60
2023-05-14T05:10:52.766Z,32.62
2023-05-14T05:11:52.794Z,32.61
2023-05-14T05:12:52.817Z,32.62
2023-05-14T05:13:52.927Z,32.63
2023-05-14T05:14:52.925Z,32.62
2023-05-14T05:15:53.015Z,32.62
2023-05-14T05:16:53.036Z,32.62
2023-05-14T05:17:53.111Z,32.61
2023-05-14T05:18:53.194Z,32.61
2023-05-14T05:19:53.204Z,32.62
2023-05-14T05:20:53.230Z,32.62
2023-05-14T05:21:53.267Z,32.60
2023-05-14T05:22:53.336Z,32.61
2023-05-14T05:23:53.452Z,32.62
2023-05-14T05:24:53.452Z,32.61
2023-05-14T05:25:53.493Z,32.62
2023-05-14T05:26:53.513Z,32.64
2023-05-14T05:27:53.538Z,32.64
2023-05-14T05:28:53.698Z,32.63
2023-05-14T05:29:53.628Z,32.62
2023-05-14T05:30:53.698Z,32.64
2023-05-14T05:31:53.760Z,32.64
2023-05-14T05:32:53.820Z,32.62
2023-05-14T05:33:53.787Z,32.64
2023-05-14T05:34:53.855Z,32.63
2023-05-14T05:35:53.886Z,32.62
2023-05-14T05:36:53.903Z,32.66
2023-05-14T05:37:53.978Z,32.63
2023-05-14T05:38:54.011Z,32.63
2023-05-14T05:39:54.040Z,32.64
2023-05-14T05:40:54.114Z,32.63
2023-05-14T05:41:54.140Z,32.62
2023-05-14T05:42:54.196Z,32.63
2023-05-14T05:43:54.203Z,32.63
2023-05-14T05:44:54.232Z,32.63
2023-05-14T05:45:54.266Z,32.62
2023-05-14T05:46:54.384Z,32.61
2023-05-14T05:47:54.388Z,32.60
2023-05-14T05:48:54.439Z,32.59
2023-05-14T05:49:54.451Z,32.62
2023-05-14T05:50:54.522Z,32.61
2023-05-14T05:51:54.549Z,32.61
2023-05-14T05:52:54.585Z,32.62
2023-05-14T05:53:54.640Z,32.61
2023-05-14T05:54:54.670Z,32.61
2023-05-14T05:55:54.683Z,32.62
2023-05-14T05:56:54.767Z,32.61
2023-05-14T05:57:54.815Z,32.61
2023-05-14T05:58:54.841Z,32.61
2023-05-14T05:59:54.886Z,32.61
2023-05-14T06:00:54.903Z,32.61
2023-05-14T06:01:54.951Z,32.63
2023-05-14T06:02:54.989Z,32.62
2023-05-14T06:03:55.002Z,32.63
2023-05-14T06:04:55.087Z,32.62
2023-05-14T06:05:55.066Z,32.64
2023-05-14T06:06:55.100Z,32.60
2023-05-14T06:07:55.135Z,32.59
2023-05-14T06:08:55.223Z,32.60
2023-05-14T06:09:55.240Z,32.59
2023-05-14T06:10:55.294Z,32.58
2023-05-14T06:11:55.324Z,32.58
2023-05-14T06:12:55.368Z,32.58
2023-05-14T06:13:55.423Z,32.58
2023-05-14T06:14:55.487Z,32.58
2023-05-14T06:15:55.531Z,32.58
2023-05-14T06:16:55.691Z,32.58
2023-05-14T06:17:55.681Z,32.58
2023-05-14T06:18:55.731Z,32.57
2023-05-14T06:19:55.744Z,32.58
2023-05-14T06:20:55.785Z,32.59
2023-05-14T06:21:55.850Z,32.57
2023-05-14T06:22:55.858Z,32.56
2023-05-14T06:23:55.896Z,32.53
2023-05-14T06:24:55.981Z,32.53
2023-05-14T06:25:55.982Z,32.52
2023-05-14T06:26:56.044Z,32.55
2023-05-14T06:27:56.073Z,32.53
2023-05-14T06:28:56.153Z,32.53
2023-05-14T06:29:56.146Z,32.53
2023-05-14T06:30:56.211Z,32.52
2023-05-14T06:31:56.241Z,32.53
2023-05-14T06:32:56.324Z,32.53
2023-05-14T06:33:56.355Z,32.53
2023-05-14T06:34:56.382Z,32.52
2023-05-14T06:35:56.466Z,32.51
2023-05-14T06:36:56.484Z,32.53
2023-05-14T06:37:56.552Z,32.54
2023-05-14T06:38:56.595Z,32.52
2023-05-14T06:39:57.846Z,32.52
2023-05-14T06:40:56.706Z,32.52
2023-05-14T06:41:56.764Z,32.52
2023-05-14T06:42:56.836Z,32.52
2023-05-14T06:43:56.909Z,32.51
2023-05-14T06:44:56.925Z,32.53
2023-05-14T06:45:56.900Z,32.53
2023-05-14T06:46:56.950Z,32.51
2023-05-14T06:47:57.135Z,32.53
2023-05-14T06:48:59.206Z,32.50
2023-05-14T06:49:57.180Z,32.50
2023-05-14T06:50:57.208Z,32.51
2023-05-14T06:51:57.288Z,32.51
2023-05-14T06:52:57.317Z,32.51
2023-05-14T06:53:57.395Z,32.51
2023-05-14T06:54:57.460Z,32.52
2023-05-14T06:55:57.501Z,32.51
2023-05-14T06:56:57.513Z,32.50
2023-05-14T06:57:57.602Z,32.50
2023-05-14T06:58:57.640Z,32.49
2023-05-14T06:59:57.684Z,32.50
2023-05-14T07:00:57.720Z,32.48
2023-05-14T07:01:57.767Z,32.48
2023-05-14T07:02:57.808Z,32.50
2023-05-14T07:03:57.879Z,32.49
2023-05-14T07:04:57.904Z,32.46
2023-05-14T07:05:57.974Z,32.45
2023-05-14T07:06:58.033Z,32.46
2023-05-14T07:07:58.096Z,32.45
2023-05-14T07:08:58.174Z,32.44
2023-05-14T07:09:58.247Z,32.43
2023-05-14T07:10:58.268Z,32.42
2023-05-14T07:11:58.307Z,32.44
2023-05-14T07:12:58.394Z,32.46
2023-05-14T07:13:58.457Z,32.47
2023-05-14T07:14:58.527Z,32.44
2023-05-14T07:15:58.537Z,32.41
2023-05-14T07:16:58.634Z,32.40
2023-05-14T07:17:58.668Z,32.39
2023-05-14T07:18:58.795Z,32.43
2023-05-14T07:19:58.778Z,32.40
2023-05-14T07:20:58.860Z,32.40
2023-05-14T07:21:58.921Z,32.38
2023-05-14T07:22:58.946Z,32.40
2023-05-14T07:23:59.013Z,32.37
2023-05-14T07:24:59.075Z,32.38
2023-05-14T07:25:59.111Z,32.36
2023-05-14T07:26:59.187Z,32.35
2023-05-14T07:27:59.198Z,32.36
2023-05-14T07:28:59.283Z,32.35
2023-05-14T07:29:59.313Z,32.35
2023-05-14T07:30:59.400Z,32.36
2023-05-14T07:31:59.377Z,32.35
2023-05-14T07:32:59.474Z,32.36
2023-05-14T07:33:59.466Z,32.32
2023-05-14T07:34:59.499Z,32.32
2023-05-14T07:35:59.528Z,32.35
2023-05-14T07:36:59.627Z,32.35
2023-05-14T07:37:59.667Z,32.34
2023-05-14T07:38:59.730Z,32.33
2023-05-14T07:39:59.791Z,32.32
2023-05-14T07:40:59.881Z,32.35
2023-05-14T07:41:59.894Z,32.34
2023-05-14T07:42:59.941Z,32.33
2023-05-14T07:44:00.004Z,32.34
2023-05-14T07:45:00.054Z,32.31
2023-05-14T07:46:00.172Z,32.31
2023-05-14T07:47:00.241Z,32.33
2023-05-14T07:48:00.397Z,32.31
2023-05-14T07:49:00.314Z,32.32
2023-05-14T07:50:00.336Z,32.32
2023-05-14T07:51:00.438Z,32.30
2023-05-14T07:52:00.463Z,32.32
2023-05-14T07:53:00.503Z,32.31
2023-05-14T07:54:00.579Z,32.29
2023-05-14T07:55:00.643Z,32.29
2023-05-14T07:56:00.689Z,32.25
2023-05-14T07:57:00.761Z,32.28
2023-05-14T07:58:00.815Z,32.25
2023-05-14T07:59:00.933Z,32.27
2023-05-14T08:00:00.932Z,32.22
2023-05-14T08:01:01.013Z,32.23
2023-05-14T08:02:01.117Z,32.23
2023-05-14T08:03:01.343Z,32.23
2023-05-14T08:04:01.368Z,32.24
2023-05-14T08:05:01.278Z,32.23
2023-05-14T08:06:01.318Z,32.22
2023-05-14T08:07:01.391Z,32.20
2023-05-14T08:08:01.411Z,32.20
2023-05-14T08:09:01.512Z,32.18
2023-05-14T08:10:01.567Z,32.20
2023-05-14T08:11:01.655Z,32.19
2023-05-14T08:12:01.652Z,32.17
2023-05-14T08:13:01.710Z,32.18
2023-05-14T08:14:01.772Z,32.16
2023-05-14T08:15:01.853Z,32.19
2023-05-14T08:16:01.889Z,32.17
2023-05-14T08:17:02.012Z,32.16
2023-05-14T08:18:02.068Z,32.17
2023-05-14T08:19:02.181Z,32.15
2023-05-14T08:20:02.187Z,32.13
2023-05-14T08:21:03.530Z,32.15
2023-05-14T08:22:02.298Z,32.15
2023-05-14T08:23:02.275Z,32.15
2023-05-14T08:24:02.375Z,32.13
2023-05-14T08:25:02.377Z,32.10
2023-05-14T08:26:02.448Z,32.11
2023-05-14T08:27:02.498Z,32.09
2023-05-14T08:28:02.575Z,32.08
2023-05-14T08:29:02.620Z,32.05
2023-05-14T08:30:02.691Z,32.04
2023-05-14T08:31:02.781Z,32.02
2023-05-14T08:32:11.675Z,32.04
2023-05-14T08:33:03.803Z,32.07
2023-05-14T08:34:02.756Z,32.06
2023-05-14T08:35:02.764Z,32.03
2023-05-14T08:36:02.747Z,32.03
2023-05-14T08:37:02.731Z,32.02
2023-05-14T08:38:02.732Z,32.02
2023-05-14T08:39:02.727Z,31.98
2023-05-14T08:40:02.759Z,31.98
2023-05-14T08:41:02.710Z,31.98
2023-05-14T08:42:02.755Z,31.97
2023-05-14T08:43:02.780Z,31.96
2023-05-14T08:44:02.819Z,31.94
2023-05-14T08:45:02.887Z,31.90
2023-05-14T08:46:02.876Z,31.89
2023-05-14T08:47:02.930Z,31.90
2023-05-14T08:48:03.043Z,31.88
2023-05-14T08:49:03.120Z,31.85
2023-05-14T08:50:03.069Z,31.84
2023-05-14T08:51:03.074Z,31.81
2023-05-14T08:52:03.112Z,31.80
2023-05-14T08:53:03.159Z,31.79
2023-05-14T08:54:03.195Z,31.78
2023-05-14T08:55:03.269Z,31.75
2023-05-14T08:56:03.241Z,31.75
2023-05-14T08:57:03.296Z,31.75
2023-05-14T08:58:03.322Z,31.75
2023-05-14T08:59:03.346Z,31.72
2023-05-14T09:00:03.378Z,31.73
2023-05-14T09:01:03.403Z,31.72
2023-05-14T09:02:03.500Z,31.71
2023-05-14T09:03:03.517Z,31.71
2023-05-14T09:04:03.501Z,31.71
2023-05-14T09:05:03.514Z,31.69
2023-05-14T09:06:03.512Z,31.66
2023-05-14T09:07:03.530Z,31.61
2023-05-14T09:08:03.577Z,31.61
2023-05-14T09:09:03.599Z,31.61
2023-05-14T09:10:03.619Z,31.62
2023-05-14T09:11:03.619Z,31.59
2023-05-14T09:12:03.659Z,31.57
2023-05-14T09:13:03.655Z,31.54
2023-05-14T09:14:03.679Z,31.54
2023-05-14T09:15:03.725Z,31.50
2023-05-14T09:16:03.712Z,31.52
2023-05-14T09:17:03.718Z,31.51
2023-05-14T09:18:03.786Z,31.50
2023-05-14T09:19:03.774Z,31.49
2023-05-14T09:20:03.777Z,31.51
2023-05-14T09:21:03.832Z,31.51
2023-05-14T09:22:03.822Z,31.54
2023-05-14T09:23:03.842Z,31.52
2023-05-14T09:24:03.883Z,31.53
2023-05-14T09:25:03.877Z,31.51
2023-05-14T09:26:03.931Z,31.48
2023-05-14T09:27:03.972Z,31.46
2023-05-14T09:28:03.935Z,31.47
2023-05-14T09:29:04.010Z,31.52
2023-05-14T09:30:03.985Z,31.54
2023-05-14T09:31:04.054Z,31.53
2023-05-14T09:32:04.204Z,31.51
2023-05-14T09:33:04.104Z,31.51
2023-05-14T09:34:04.050Z,31.50
2023-05-14T09:35:04.087Z,31.50
2023-05-14T09:36:04.127Z,31.48
2023-05-14T09:37:04.143Z,31.50
2023-05-14T09:38:04.150Z,31.49
2023-05-14T09:39:04.187Z,31.47
2023-05-14T09:40:04.208Z,31.42
2023-05-14T09:41:04.205Z,31.41
2023-05-14T09:42:04.269Z,31.49
2023-05-14T09:43:04.293Z,31.50
2023-05-14T09:44:06.666Z,31.47
2023-05-14T09:45:04.433Z,31.43
2023-05-14T09:46:04.452Z,31.36
2023-05-14T09:47:04.471Z,31.31
2023-05-14T09:48:04.552Z,31.30
2023-05-14T09:49:04.498Z,31.32
2023-05-14T09:50:04.535Z,31.38
2023-05-14T09:51:04.922Z,31.43
2023-05-14T09:52:04.566Z,31.34
2023-05-14T09:53:04.579Z,31.33
2023-05-14T09:54:04.636Z,31.31
2023-05-14T09:55:04.633Z,31.33
2023-05-14T09:56:04.643Z,31.31
2023-05-14T09:57:04.694Z,31.32
2023-05-14T09:58:04.726Z,31.26
2023-05-14T09:59:04.729Z,31.34
2023-05-14T10:00:04.769Z,31.32
2023-05-14T10:01:04.794Z,31.34
2023-05-14T10:02:04.809Z,31.34
2023-05-14T10:03:04.852Z,31.29
2023-05-14T10:04:04.829Z,31.29
2023-05-14T10:05:04.867Z,31.28
2023-05-14T10:06:04.883Z,31.34
2023-05-14T10:07:04.935Z,31.31
2023-05-14T10:08:04.922Z,31.28
2023-05-14T10:09:04.975Z,31.27
2023-05-14T10:10:04.997Z,31.28
2023-05-14T10:11:04.990Z,31.28
2023-05-14T10:12:05.055Z,31.30
2023-05-14T10:13:05.083Z,31.29
2023-05-14T10:14:05.075Z,31.28
2023-05-14T10:15:05.120Z,31.27
2023-05-14T10:16:05.106Z,31.32
2023-05-14T10:17:05.197Z,31.36
2023-05-14T10:18:05.216Z,31.35
2023-05-14T10:19:05.345Z,31.31
2023-05-14T10:20:05.233Z,31.28
2023-05-14T10:21:05.258Z,31.28
2023-05-14T10:22:05.268Z,31.29
2023-05-14T10:23:05.311Z,31.29
2023-05-14T10:24:05.342Z,31.28
2023-05-14T10:25:05.364Z,31.29
2023-05-14T10:26:05.372Z,31.33
2023-05-14T10:27:05.413Z,31.30
2023-05-14T10:28:05.444Z,31.34
2023-05-14T10:29:05.498Z,31.28
2023-05-14T10:30:05.502Z,31.30
2023-05-14T10:31:05.553Z,31.27
2023-05-14T10:32:05.551Z,31.26
2023-05-14T10:33:05.566Z,31.28
2023-05-14T10:34:05.601Z,31.27
2023-05-14T10:35:05.595Z,31.25
2023-05-14T10:36:05.662Z,31.23
2023-05-14T10:37:05.639Z,31.22
2023-05-14T10:38:05.685Z,31.19
2023-05-14T10:39:05.726Z,31.23
2023-05-14T10:40:05.755Z,31.21
2023-05-14T10:41:05.796Z,31.25
2023-05-14T10:42:05.894Z,31.23
2023-05-14T10:43:05.833Z,31.21
2023-05-14T10:44:05.859Z,31.21
2023-05-14T10:45:05.893Z,31.24
2023-05-14T10:46:05.921Z,31.22
2023-05-14T10:47:05.993Z,31.23
2023-05-14T10:48:06.005Z,31.24
2023-05-14T10:49:06.009Z,31.23
2023-05-14T10:50:06.094Z,31.25
2023-05-14T10:51:06.093Z,31.26
2023-05-14T10:52:06.051Z,31.28
2023-05-14T10:53:06.088Z,31.27
2023-05-14T10:54:06.141Z,31.25
2023-05-14T10:55:06.119Z,31.27
2023-05-14T10:56:06.178Z,31.26
2023-05-14T10:57:06.213Z,31.25
2023-05-14T10:58:06.223Z,31.25
2023-05-14T10:59:06.267Z,31.24
2023-05-14T11:00:06.260Z,31.25
2023-05-14T11:01:06.271Z,31.25
2023-05-14T11:02:06.360Z,31.25
2023-05-14T11:03:06.392Z,31.26
2023-05-14T11:04:06.390Z,31.25
2023-05-14T11:05:06.427Z,31.23
2023-05-14T11:06:06.409Z,31.20
2023-05-14T11:07:06.439Z,31.22
2023-05-14T11:08:06.443Z,31.22
2023-05-14T11:09:06.518Z,31.21
2023-05-14T11:10:06.525Z,31.21
2023-05-14T11:11:06.510Z,31.22
2023-05-14T11:12:06.532Z,31.21
2023-05-14T11:13:06.576Z,31.21
2023-05-14T11:14:08.445Z,31.21
2023-05-14T11:15:06.610Z,31.22
2023-05-14T11:16:15.580Z,31.19
2023-05-14T11:17:07.701Z,31.21
2023-05-14T11:18:06.664Z,31.23
2023-05-14T11:19:06.603Z,31.21
2023-05-14T11:20:06.639Z,31.20
2023-05-14T11:21:06.573Z,31.21
2023-05-14T11:22:06.571Z,31.20
2023-05-14T11:23:06.546Z,31.20
2023-05-14T11:24:06.543Z,31.22
2023-05-14T11:25:06.534Z,31.22
2023-05-14T11:26:06.601Z,31.21
2023-05-14T11:27:06.526Z,31.21
2023-05-14T11:28:06.512Z,31.23
2023-05-14T11:29:06.513Z,31.21
2023-05-14T11:30:06.508Z,31.23
2023-05-14T11:31:06.488Z,31.25
2023-05-14T11:32:06.551Z,31.24
2023-05-14T11:33:06.542Z,31.23
2023-05-14T11:34:06.592Z,31.24
2023-05-14T11:35:06.591Z,31.25
2023-05-14T11:36:06.637Z,31.25
2023-05-14T11:37:06.660Z,31.23
2023-05-14T11:38:08.011Z,31.27
2023-05-14T11:39:06.812Z,31.27
2023-05-14T11:40:06.857Z,31.25
2023-05-14T11:41:06.886Z,31.29
2023-05-14T11:42:06.867Z,31.26
2023-05-14T11:43:06.939Z,31.22
2023-05-14T11:44:09.079Z,31.24
2023-05-14T11:45:06.969Z,31.24
2023-05-14T11:46:07.022Z,31.22
2023-05-14T11:47:07.079Z,31.21
2023-05-14T11:48:07.148Z,31.24
2023-05-14T11:49:07.088Z,31.23
2023-05-14T11:50:09.256Z,31.24
2023-05-14T11:51:07.266Z,31.23
2023-05-14T11:52:07.268Z,31.19
2023-05-14T11:53:07.279Z,31.21
2023-05-14T11:54:07.336Z,31.21
2023-05-14T11:55:07.365Z,31.19
2023-05-14T11:56:09.605Z,31.21
2023-05-14T11:57:07.579Z,31.23
2023-05-14T11:58:07.627Z,31.22
2023-05-14T11:59:07.625Z,31.21
2023-05-14T12:00:07.692Z,31.24
2023-05-14T12:01:07.723Z,31.26
2023-05-14T12:02:07.874Z,31.23
2023-05-14T12:03:07.857Z,31.24
2023-05-14T12:04:07.892Z,31.24
2023-05-14T12:05:07.846Z,31.25
2023-05-14T12:06:07.887Z,31.24
2023-05-14T12:07:07.939Z,31.27
2023-05-14T12:08:07.944Z,31.31
2023-05-14T12:09:08.016Z,31.32
2023-05-14T12:10:08.040Z,31.35
2023-05-14T12:11:08.058Z,31.33
2023-05-14T12:12:08.105Z,31.29
2023-05-14T12:13:08.143Z,31.30
2023-05-14T12:14:08.186Z,31.31
2023-05-14T12:15:08.232Z,31.31
2023-05-14T12:16:08.265Z,31.33
2023-05-14T12:17:08.252Z,31.32
2023-05-14T12:18:20.405Z,31.32
2023-05-14T12:19:09.346Z,31.30
2023-05-14T12:20:08.312Z,31.33
2023-05-14T12:21:08.440Z,31.33
2023-05-14T12:22:08.275Z,31.36
2023-05-14T12:23:08.269Z,31.38
2023-05-14T12:24:08.248Z,31.37
2023-05-14T12:25:08.287Z,31.37
2023-05-14T12:26:08.240Z,31.41
2023-05-14T12:27:08.229Z,31.42
2023-05-14T12:28:08.233Z,31.42
2023-05-14T12:29:08.221Z,31.42
2023-05-14T12:30:20.088Z,31.42
2023-05-14T12:31:09.218Z,31.42
2023-05-14T12:32:08.224Z,31.44
2023-05-14T12:33:08.268Z,31.43
2023-05-14T12:34:08.202Z,31.44
2023-05-14T12:35:08.177Z,31.44
2023-05-14T12:37:08.187Z,31.47
2023-05-14T12:38:08.141Z,31.46
2023-05-14T12:39:08.146Z,31.46
2023-05-14T12:40:08.147Z,31.47
2023-05-14T12:41:08.132Z,31.48
2023-05-14T12:42:08.154Z,31.49
2023-05-14T12:43:08.120Z,31.48
2023-05-14T12:44:08.104Z,31.47
2023-05-14T12:45:08.236Z,31.49
2023-05-14T12:46:08.110Z,31.47
2023-05-14T12:47:08.133Z,31.51
2023-05-14T12:48:08.088Z,31.47
2023-05-14T12:49:08.079Z,31.50
2023-05-14T12:50:08.096Z,31.53
2023-05-14T12:51:08.042Z,31.53
2023-05-14T12:52:25.716Z,31.53
2023-05-14T12:53:09.088Z,31.54
2023-05-14T12:54:08.025Z,31.54